Time;durP1;ratioP1;P1;durP2;ratioP2;P2;SDS_P1;SDS_P2;PMS_P1;PMS_P2;Temp;Humidity;BMP_temperature;BMP_pressure;BME280_temperature;BME280_humidity;BME280_pressure;Samples;Min_cycle;Max_cycle;Signal;HPM_P1;HPM_P2
2023/10/10 00:02:05;;;;;;;0.00;0.00;;;;;;;;;;5007720;28;20032;-88
2023/10/10 00:04:33;;;;;;;0.00;0.00;;;;;;;;;;5056655;28;20035;-88
2023/10/10 00:07:07;;;;;;;0.00;0.00;;;;;;;;;;5074373;28;20111;-90
2023/10/10 00:09:33;;;;;;;0.00;0.00;;;;;;;;;;5057562;28;20035;-89
2023/10/10 00:11:59;;;;;;;0.00;0.00;;;;;;;;;;5073983;28;20048;-89
2023/10/10 00:14:27;;;;;;;0.00;0.00;;;;;;;;;;5056606;28;20028;-88
2023/10/10 00:16:55;;;;;;;0.00;0.00;;;;;;;;;;5038945;28;20078;-90
2023/10/10 00:21:52;;;;;;;0.00;0.00;;;;;;;;;;5057348;28;20025;-89
2023/10/10 00:24:20;;;;;;;0.00;0.00;;;;;;;;;;5040574;28;20024;-90
2023/10/10 00:26:47;;;;;;;0.00;0.00;;;;;;;;;;5073920;28;20406;-87
2023/10/10 00:29:13;;;;;;;0.00;0.00;;;;;;;;;;5056569;28;20363;-88
2023/10/10 00:31:42;;;;;;;0.00;0.00;;;;;;;;;;5056059;28;20033;-90
2023/10/10 00:34:09;;;;;;;0.00;0.00;;;;;;;;;;5024878;28;20127;-89
2023/10/10 00:36:35;;;;;;;0.00;0.00;;;;;;;;;;5055962;28;20093;-89
2023/10/10 00:41:44;;;;;;;0.00;0.00;;;;;;;;;;5057280;28;20389;-87
2023/10/10 00:44:16;;;;;;;0.00;0.00;;;;;;;;;;5025494;28;20154;-88
2023/10/10 00:46:42;;;;;;;0.00;0.00;;;;;;;;;;5041557;28;20354;-88
2023/10/10 00:49:13;;;;;;;0.00;0.00;;;;;;;;;;5039374;28;20035;-89
2023/10/10 00:51:39;;;;;;;0.00;0.00;;;;;;;;;;5040963;28;20032;-89
2023/10/10 00:57:00;;;;;;;0.00;0.00;;;;;;;;;;5044923;28;20033;-90
2023/10/10 00:59:54;;;;;;;0.00;0.00;;;;;;;;;;5054097;28;20024;-86
2023/10/10 01:02:17;;;;;;;0.00;0.00;;;;;;;;;;5024573;28;20040;-88
2023/10/10 01:04:49;;;;;;;0.00;0.00;;;;;;;;;;5020066;28;20120;-89
2023/10/10 01:07:21;;;;;;;0.00;0.00;;;;;;;;;;5004882;28;20036;-89
2023/10/10 01:09:56;;;;;;;0.00;0.00;;;;;;;;;;5020176;28;20121;-89
2023/10/10 01:12:28;;;;;;;0.00;0.00;;;;;;;;;;5005462;28;20397;-88
2023/10/10 01:14:57;;;;;;;0.00;0.00;;;;;;;;;;5003880;28;20435;-90
2023/10/10 01:17:33;;;;;;;0.00;0.00;;;;;;;;;;5020430;28;20032;-88
2023/10/10 01:22:51;;;;;;;0.00;0.00;;;;;;;;;;5025010;28;20036;-89
2023/10/10 01:26:05;;;;;;;0.00;0.00;;;;;;;;;;5035785;28;20025;-90
2023/10/10 01:28:15;;;;;;;0.00;0.00;;;;;;;;;;5033497;28;20025;-88
2023/10/10 01:30:44;;;;;;;0.00;0.00;;;;;;;;;;5035872;28;20441;-88
2023/10/10 01:33:22;;;;;;;0.00;0.00;;;;;;;;;;5020705;28;20036;-89
2023/10/10 01:35:55;;;;;;;0.00;0.00;;;;;;;;;;5037640;28;20025;-85
2023/10/10 01:38:31;;;;;;;0.00;0.00;;;;;;;;;;5004541;28;20029;-87
2023/10/10 01:40:58;;;;;;;0.00;0.00;;;;;;;;;;5035480;28;20123;-89
2023/10/10 01:43:25;;;;;;;0.00;0.00;;;;;;;;;;5019289;28;20028;-87
2023/10/10 01:46:19;;;;;;;0.00;0.00;;;;;;;;;;5035758;28;20067;-86
2023/10/10 01:48:45;;;;;;;0.00;0.00;;;;;;;;;;5009578;28;20033;-86
2023/10/10 01:51:14;;;;;;;0.00;0.00;;;;;;;;;;5035442;28;20082;-86
2023/10/10 01:53:40;;;;;;;0.00;0.00;;;;;;;;;;5003612;28;20021;-86
2023/10/10 01:56:12;;;;;;;0.00;0.00;;;;;;;;;;5019075;28;20032;-87
2023/10/10 01:58:38;;;;;;;0.00;0.00;;;;;;;;;;5019755;28;20162;-88
2023/10/10 02:01:19;;;;;;;0.00;0.00;;;;;;;;;;5018955;28;20062;-88
2023/10/10 02:03:48;;;;;;;0.00;0.00;;;;;;;;;;5036356;28;20040;-88
2023/10/10 02:06:22;;;;;;;0.00;0.00;;;;;;;;;;5035942;28;20083;-88
2023/10/10 02:08:51;;;;;;;0.00;0.00;;;;;;;;;;5022141;28;20041;-88
2023/10/10 02:11:20;;;;;;;0.00;0.00;;;;;;;;;;5039347;28;20367;-86
2023/10/10 02:13:50;;;;;;;0.00;0.00;;;;;;;;;;5039555;28;20119;-87
2023/10/10 02:16:22;;;;;;;0.00;0.00;;;;;;;;;;5039316;28;20438;-86
2023/10/10 02:18:51;;;;;;;0.10;0.00;;;;;;;;;;5023815;28;20053;-88
2023/10/10 02:21:42;;;;;;;0.00;0.00;;;;;;;;;;5039233;28;20016;-87
2023/10/10 02:26:52;;;;;;;0.15;0.00;;;;;;;;;;5041247;28;20454;-88
2023/10/10 02:29:19;;;;;;;0.00;0.00;;;;;;;;;;5038402;28;20033;-88
2023/10/10 02:31:51;;;;;;;0.00;0.00;;;;;;;;;;5056268;28;20717;-86
2023/10/10 02:34:19;;;;;;;0.00;0.00;;;;;;;;;;5039703;28;20140;-88
2023/10/10 02:36:53;;;;;;;0.00;0.00;;;;;;;;;;5038436;28;20025;-88
2023/10/10 02:39:27;;;;;;;0.00;0.00;;;;;;;;;;5039759;28;20028;-87
2023/10/10 02:41:59;;;;;;;0.00;0.00;;;;;;;;;;5039122;28;20049;-85
2023/10/10 02:46:59;;;;;;;0.00;0.00;;;;;;;;;;5024685;28;20021;-86
2023/10/10 02:51:55;;;;;;;0.00;0.00;;;;;;;;;;5021977;28;20075;-86
2023/10/10 02:56:48;;;;;;;0.00;0.00;;;;;;;;;;5021808;28;20086;-86
2023/10/10 02:59:21;;;;;;;0.00;0.00;;;;;;;;;;5038176;28;20028;-86
2023/10/10 03:01:57;;;;;;;0.00;0.00;;;;;;;;;;5022722;28;20033;-86
2023/10/10 03:04:52;;;;;;;0.00;0.00;;;;;;;;;;5022971;28;20025;-85
2023/10/10 03:07:11;;;;;;;0.00;0.00;;;;;;;;;;5040379;28;20106;-87
2023/10/10 03:10:06;;;;;;;0.00;0.00;;;;;;;;;;5037833;28;20447;-84
2023/10/10 03:12:27;;;;;;;0.00;0.00;;;;;;;;;;5041095;28;20036;-90
2023/10/10 03:14:53;;;;;;;0.00;0.00;;;;;;;;;;5037931;28;20029;-89
2023/10/10 03:17:31;;;;;;;0.00;0.00;;;;;;;;;;5021381;28;20120;-89
2023/10/10 03:20:12;;;;;;;0.00;0.00;;;;;;;;;;5037943;28;20036;-87
2023/10/10 03:25:28;;;;;;;0.00;0.00;;;;;;;;;;5040060;28;20032;-86
2023/10/10 03:28:05;;;;;;;0.00;0.00;;;;;;;;;;5022576;28;20352;-89
2023/10/10 03:33:16;;;;;;;0.00;0.00;;;;;;;;;;5056421;28;20035;-89
2023/10/10 03:36:05;;;;;;;0.00;0.00;;;;;;;;;;5040609;28;20031;-88
2023/10/10 05:24:59;;;;;;;0.00;0.00;;;;;;;;;;5056124;28;20031;-78
2023/10/10 05:27:29;;;;;;;0.00;0.00;;;;;;;;;;5055248;28;20243;-77
2023/10/10 05:29:56;;;;;;;0.00;0.00;;;;;;;;;;5056424;28;20033;-79
2023/10/10 05:32:22;;;;;;;0.00;0.00;;;;;;;;;;5057209;28;20040;-78
2023/10/10 05:34:52;;;;;;;0.00;0.00;;;;;;;;;;5075135;28;20115;-79
2023/10/10 05:37:18;;;;;;;0.00;0.00;;;;;;;;;;5076602;28;20088;-77
2023/10/10 05:39:46;;;;;;;0.00;0.00;;;;;;;;;;5057646;28;20029;-78
2023/10/10 05:42:13;;;;;;;0.00;0.00;;;;;;;;;;5057191;28;20039;-77
2023/10/10 05:44:41;;;;;;;0.00;0.00;;;;;;;;;;5024996;28;20040;-75
2023/10/10 05:47:12;;;;;;;0.00;0.00;;;;;;;;;;5060523;28;20043;-77
2023/10/10 05:49:40;;;;;;;0.00;0.00;;;;;;;;;;5045421;28;20119;-77
2023/10/10 05:52:06;;;;;;;0.00;0.00;;;;;;;;;;5044150;28;20037;-77
2023/10/10 05:54:36;;;;;;;0.00;0.00;;;;;;;;;;5071622;28;20071;-76
2023/10/10 05:57:02;;;;;;;0.00;0.00;;;;;;;;;;5061319;28;20024;-79
2023/10/10 05:59:28;;;;;;;0.00;0.00;;;;;;;;;;5081552;28;20376;-77
2023/10/10 06:01:54;;;;;;;0.00;0.00;;;;;;;;;;5072896;28;20033;-76
2023/10/10 06:04:19;;;;;;;0.00;0.00;;;;;;;;;;5066809;28;20043;-77
2023/10/10 06:06:46;;;;;;;0.00;0.00;;;;;;;;;;5080930;28;20028;-78
2023/10/10 06:09:18;;;;;;;0.00;0.00;;;;;;;;;;5081245;28;20027;-78
2023/10/10 06:11:49;;;;;;;0.00;0.00;;;;;;;;;;5064529;28;20041;-77
2023/10/10 06:14:27;;;;;;;0.00;0.00;;;;;;;;;;5030355;28;20442;-80
2023/10/10 06:17:12;;;;;;;0.00;0.00;;;;;;;;;;5044083;28;20130;-80
2023/10/10 06:19:37;;;;;;;0.00;0.00;;;;;;;;;;5045145;28;20111;-76
2023/10/10 06:22:08;;;;;;;0.00;0.00;;;;;;;;;;5045095;28;20055;-79
2023/10/10 06:24:40;;;;;;;0.00;0.00;;;;;;;;;;5062745;28;20040;-79
2023/10/10 06:27:13;;;;;;;0.00;0.00;;;;;;;;;;5072988;28;20023;-81
2023/10/10 06:33:40;;;;;;;0.00;0.00;;;;;;;;;;5752814;22;20067;-85
2023/10/10 06:44:04;;;;;;;0.00;0.00;;;;;;;;;;5059085;28;20123;-77
2023/10/10 06:46:37;;;;;;;0.00;0.00;;;;;;;;;;5025551;28;20060;-78
2023/10/10 06:49:04;;;;;;;0.00;0.00;;;;;;;;;;5065509;28;20020;-78
2023/10/10 06:51:30;;;;;;;0.00;0.00;;;;;;;;;;5059418;28;20451;-78
2023/10/10 06:53:56;;;;;;;0.00;0.00;;;;;;;;;;5080262;28;20028;-81
2023/10/10 06:59:06;;;;;;;0.00;0.00;;;;;;;;;;5056077;28;20023;-77
2023/10/10 07:01:32;;;;;;;0.00;0.00;;;;;;;;;;5076420;28;20033;-78
2023/10/10 07:04:03;;;;;;;0.00;0.00;;;;;;;;;;5042797;28;20458;-78
2023/10/10 07:06:30;;;;;;;0.10;0.00;;;;;;;;;;5042536;28;20045;-78
2023/10/10 07:09:57;;;;;;;0.00;0.00;;;;;;;;;;5023295;28;20044;-79
2023/10/10 07:11:52;;;;;;;0.00;0.00;;;;;;;;;;5051508;28;20044;-80
2023/10/10 07:14:20;;;;;;;0.00;0.00;;;;;;;;;;5061036;28;20032;-77
2023/10/10 07:16:49;;;;;;;0.00;0.00;;;;;;;;;;5054311;28;20033;-80
2023/10/10 07:19:30;;;;;;;0.00;0.00;;;;;;;;;;5080298;28;20036;-80
2023/10/10 07:21:56;;;;;;;0.00;0.00;;;;;;;;;;5064856;28;20103;-81
2023/10/10 07:24:28;;;;;;;0.00;0.00;;;;;;;;;;5060265;28;20039;-78
2023/10/10 07:27:05;;;;;;;0.00;0.00;;;;;;;;;;5079615;28;20449;-78
2023/10/10 07:30:17;;;;;;;0.00;0.00;;;;;;;;;;5065240;28;20035;-77
2023/10/10 07:32:28;;;;;;;0.00;0.00;;;;;;;;;;5037618;28;20046;-81
2023/10/10 07:38:18;;;;;;;0.00;0.00;;;;;;;;;;5086610;22;20059;-77
2023/10/10 07:40:44;;;;;;;0.00;0.00;;;;;;;;;;5041988;28;20105;-81
2023/10/10 07:43:10;;;;;;;0.00;0.00;;;;;;;;;;5047686;28;20044;-80
2023/10/10 07:45:51;;;;;;;0.00;0.00;;;;;;;;;;5027029;28;20033;-83
2023/10/10 07:51:08;;;;;;;0.13;0.00;;;;;;;;;;5043631;28;20032;-80
2023/10/10 07:53:44;;;;;;;0.00;0.00;;;;;;;;;;5065410;28;20082;-83
2023/10/10 07:56:10;;;;;;;0.00;0.00;;;;;;;;;;5046830;28;20020;-80
2023/10/10 07:58:56;;;;;;;0.00;0.00;;;;;;;;;;5044241;28;20055;-82
2023/10/10 08:01:23;;;;;;;0.00;0.00;;;;;;;;;;5035280;28;20028;-83
2023/10/10 08:03:49;;;;;;;0.00;0.00;;;;;;;;;;5021472;28;20123;-78
2023/10/10 08:06:21;;;;;;;0.00;0.00;;;;;;;;;;5078739;28;20124;-78
2023/10/10 08:11:37;;;;;;;0.00;0.00;;;;;;;;;;5050082;28;20491;-79
2023/10/10 08:14:07;;;;;;;0.00;0.00;;;;;;;;;;5074666;28;20093;-80
2023/10/10 08:16:40;;;;;;;0.00;0.00;;;;;;;;;;5039529;28;20410;-77
2023/10/10 08:19:08;;;;;;;0.00;0.00;;;;;;;;;;5076269;28;20024;-79
2023/10/10 08:21:48;;;;;;;0.05;0.00;;;;;;;;;;5075459;28;20028;-79
2023/10/10 08:24:14;;;;;;;0.00;0.00;;;;;;;;;;5057186;28;20437;-77
2023/10/10 08:26:40;;;;;;;0.00;0.00;;;;;;;;;;5058303;28;20032;-80
2023/10/10 08:29:07;;;;;;;0.00;0.00;;;;;;;;;;5079881;28;20059;-79
2023/10/10 08:31:33;;;;;;;0.00;0.00;;;;;;;;;;5039984;28;20394;-81
2023/10/10 08:33:58;;;;;;;0.00;0.00;;;;;;;;;;5059175;28;20036;-81
2023/10/10 08:36:24;;;;;;;0.00;0.00;;;;;;;;;;5042893;28;20107;-79
2023/10/10 08:38:53;;;;;;;0.00;0.00;;;;;;;;;;5042737;28;20075;-81
2023/10/10 08:41:21;;;;;;;0.00;0.00;;;;;;;;;;5059366;28;20520;-81
2023/10/10 08:43:53;;;;;;;0.00;0.00;;;;;;;;;;5059110;28;20039;-79
2023/10/10 08:46:21;;;;;;;0.10;0.00;;;;;;;;;;5059445;28;20028;-79
2023/10/10 08:48:47;;;;;;;0.03;0.00;;;;;;;;;;5045947;28;20082;-77
2023/10/10 08:51:13;;;;;;;0.00;0.00;;;;;;;;;;5062340;28;20124;-79
2023/10/10 08:53:40;;;;;;;0.00;0.00;;;;;;;;;;5058075;28;20065;-78
2023/10/10 08:56:06;;;;;;;0.00;0.00;;;;;;;;;;5080716;28;20043;-81
2023/10/10 08:58:32;;;;;;;0.00;0.00;;;;;;;;;;5028979;28;20041;-77
2023/10/10 09:01:00;;;;;;;0.00;0.00;;;;;;;;;;5023604;28;20115;-79
2023/10/10 09:03:26;;;;;;;0.00;0.00;;;;;;;;;;5049319;28;20055;-80
2023/10/10 09:05:52;;;;;;;0.00;0.00;;;;;;;;;;5043655;28;20028;-78
2023/10/10 09:08:19;;;;;;;0.00;0.00;;;;;;;;;;5075613;28;20582;-77
2023/10/10 09:10:46;;;;;;;0.00;0.00;;;;;;;;;;5073742;28;20063;-77
2023/10/10 09:13:11;;;;;;;0.00;0.00;;;;;;;;;;5077346;28;20024;-78
2023/10/10 09:15:40;;;;;;;0.00;0.00;;;;;;;;;;5093849;28;20099;-80
2023/10/10 09:18:17;;;;;;;0.00;0.00;;;;;;;;;;5060705;28;20046;-80
2023/10/10 09:20:46;;;;;;;0.00;0.00;;;;;;;;;;5067039;28;20028;-81
2023/10/10 09:23:28;;;;;;;0.00;0.00;;;;;;;;;;5034976;28;20044;-81
2023/10/10 09:26:29;;;;;;;0.00;0.00;;;;;;;;;;5082621;28;20039;-81
2023/10/10 09:29:03;;;;;;;0.00;0.00;;;;;;;;;;5092302;28;20028;-87
2023/10/10 09:31:33;;;;;;;0.00;0.00;;;;;;;;;;5057758;28;20029;-78
2023/10/10 09:34:06;;;;;;;0.00;0.00;;;;;;;;;;5068054;28;20043;-79
2023/10/10 09:36:50;;;;;;;0.00;0.00;;;;;;;;;;5066166;28;20033;-80
2023/10/10 09:39:35;;;;;;;0.00;0.00;;;;;;;;;;5085455;28;20035;-79
2023/10/10 09:42:00;;;;;;;0.00;0.00;;;;;;;;;;5077138;28;20424;-79
2023/10/10 09:58:00;;;;;;;0.00;0.00;;;;;;;;;;5026378;28;20037;-79
2023/10/10 10:09:17;;;;;;;0.00;0.00;;;;;;;;;;5085445;28;20350;-80
2023/10/10 10:11:52;;;;;;;0.28;0.00;;;;;;;;;;5063486;28;20060;-79
2023/10/10 10:14:46;;;;;;;0.00;0.00;;;;;;;;;;5066738;28;20024;-80
2023/10/10 10:17:54;;;;;;;0.00;0.00;;;;;;;;;;5093523;28;20038;-80
2023/10/10 10:20:33;;;;;;;0.00;0.00;;;;;;;;;;5086645;28;20123;-78
2023/10/10 10:23:00;;;;;;;0.00;0.00;;;;;;;;;;5046564;28;20029;-80
2023/10/10 10:25:28;;;;;;;0.00;0.00;;;;;;;;;;5078016;28;20032;-79
2023/10/10 10:28:14;;;;;;;0.00;0.00;;;;;;;;;;5105845;28;20024;-80
2023/10/10 10:30:53;;;;;;;0.00;0.00;;;;;;;;;;5072085;28;20020;-81
2023/10/10 10:33:20;;;;;;;0.00;0.00;;;;;;;;;;5092505;28;20393;-79
2023/10/10 10:35:56;;;;;;;0.00;0.00;;;;;;;;;;5074690;28;20028;-78
2023/10/10 10:38:23;;;;;;;0.00;0.00;;;;;;;;;;5078858;28;20051;-79
2023/10/10 10:40:50;;;;;;;0.00;0.00;;;;;;;;;;5058384;28;20048;-78
2023/10/10 10:43:21;;;;;;;0.00;0.00;;;;;;;;;;5074141;28;20039;-82
2023/10/10 10:45:51;;;;;;;0.00;0.00;;;;;;;;;;5063591;28;20036;-81
2023/10/10 10:48:29;;;;;;;0.00;0.00;;;;;;;;;;5048090;28;20048;-85
2023/10/10 10:53:58;;;;;;;0.00;0.00;;;;;;;;;;5106591;28;20458;-79
2023/10/10 10:59:19;;;;;;;0.00;0.00;;;;;;;;;;5080964;28;20028;-78
2023/10/10 11:01:51;;;;;;;0.00;0.00;;;;;;;;;;5086665;28;20021;-77
2023/10/10 11:07:07;;;;;;;0.00;0.00;;;;;;;;;;5062346;28;20029;-77
2023/10/10 11:09:34;;;;;;;0.00;0.00;;;;;;;;;;5061323;28;20016;-77
2023/10/10 11:12:03;;;;;;;0.00;0.00;;;;;;;;;;5071725;28;20032;-76
2023/10/10 11:14:45;;;;;;;0.00;0.00;;;;;;;;;;5039341;28;20035;-77
2023/10/10 11:17:21;;;;;;;0.00;0.00;;;;;;;;;;5040489;28;20035;-76
2023/10/10 11:19:47;;;;;;;0.00;0.00;;;;;;;;;;5074243;28;20064;-76
2023/10/10 11:22:38;;;;;;;0.00;0.00;;;;;;;;;;5075737;28;20074;-75
2023/10/10 11:25:04;;;;;;;0.00;0.00;;;;;;;;;;5047747;28;20040;-76
2023/10/10 11:27:33;;;;;;;0.00;0.00;;;;;;;;;;5059182;28;20127;-78
2023/10/10 11:30:01;;;;;;;0.00;0.00;;;;;;;;;;5057854;28;20034;-74
2023/10/10 11:32:36;;;;;;;0.00;0.00;;;;;;;;;;5074826;28;20036;-75
2023/10/10 11:35:17;;;;;;;0.00;0.00;;;;;;;;;;5070386;28;20055;-77
2023/10/10 11:37:49;;;;;;;0.00;0.00;;;;;;;;;;5090890;28;20147;-75
2023/10/10 11:42:54;;;;;;;0.00;0.00;;;;;;;;;;5041312;28;20110;-76
2023/10/10 11:45:25;;;;;;;0.00;0.00;;;;;;;;;;5034643;28;20044;-75
2023/10/10 11:47:51;;;;;;;0.00;0.00;;;;;;;;;;5053413;28;20044;-75
2023/10/10 11:50:17;;;;;;;0.00;0.00;;;;;;;;;;5017634;28;20033;-76
2023/10/10 11:52:53;;;;;;;0.00;0.00;;;;;;;;;;5051746;28;20033;-77
2023/10/10 11:55:22;;;;;;;0.00;0.00;;;;;;;;;;5017909;28;20033;-75
2023/10/10 11:57:49;;;;;;;0.00;0.00;;;;;;;;;;5051894;28;20458;-78
2023/10/10 12:00:22;;;;;;;0.00;0.00;;;;;;;;;;5034365;28;20032;-73
2023/10/10 12:02:48;;;;;;;0.00;0.00;;;;;;;;;;5019594;28;20033;-75
2023/10/10 12:08:07;;;;;;;0.00;0.00;;;;;;;;;;5025936;28;20037;-76
2023/10/10 12:10:47;;;;;;;0.00;0.00;;;;;;;;;;5057887;28;20029;-74
2023/10/10 12:16:10;;;;;;;0.00;0.00;;;;;;;;;;5078595;28;20028;-74
2023/10/10 12:18:49;;;;;;;;;;;;;;;;;;5079020;28;20085;-76
2023/10/10 12:21:20;;;;;;;0.00;0.00;;;;;;;;;;5081204;28;19931;-75
2023/10/10 12:23:48;;;;;;;0.00;0.00;;;;;;;;;;5055720;28;20024;-75
2023/10/10 12:26:14;;;;;;;0.00;0.00;;;;;;;;;;5073589;28;20021;-75
2023/10/10 12:28:40;;;;;;;0.00;0.00;;;;;;;;;;5039310;28;20043;-75
2023/10/10 12:31:08;;;;;;;0.00;0.00;;;;;;;;;;5072503;28;20056;-76
2023/10/10 12:33:36;;;;;;;0.00;0.00;;;;;;;;;;5039089;28;20028;-75
2023/10/10 12:36:07;;;;;;;0.00;0.00;;;;;;;;;;5055988;28;20038;-78
2023/10/10 12:38:33;;;;;;;0.00;0.00;;;;;;;;;;5056742;28;20116;-77
2023/10/10 12:40:58;;;;;;;0.00;0.00;;;;;;;;;;5073421;28;20422;-75
2023/10/10 12:43:24;;;;;;;0.00;0.00;;;;;;;;;;5072975;28;20033;-76
2023/10/10 12:45:54;;;;;;;0.00;0.00;;;;;;;;;;5075131;28;20140;-90
2023/10/10 12:48:20;;;;;;;0.00;0.00;;;;;;;;;;5063793;28;20025;-86
2023/10/10 12:50:52;;;;;;;0.00;0.00;;;;;;;;;;5062949;28;20078;-90
2023/10/10 12:53:19;;;;;;;0.00;0.00;;;;;;;;;;5063872;28;20150;-87
2023/10/10 12:56:05;;;;;;;0.00;0.00;;;;;;;;;;5041520;28;20050;-87
2023/10/10 12:58:31;;;;;;;0.00;0.00;;;;;;;;;;5072437;28;20036;-90
2023/10/10 13:00:58;;;;;;;0.38;0.00;;;;;;;;;;5038719;28;20081;-88
2023/10/10 13:03:28;;;;;;;0.05;0.00;;;;;;;;;;5056748;28;20031;-92
2023/10/10 13:05:59;;;;;;;;;;;;;;;;;;5056797;28;20082;-87
2023/10/10 13:08:25;;;;;;;0.00;0.00;;;;;;;;;;5075706;28;20003;-89
2023/10/10 13:11:00;;;;;;;0.00;0.00;;;;;;;;;;5039855;28;20034;-90
2023/10/10 13:13:31;;;;;;;0.00;0.00;;;;;;;;;;5075602;28;20028;-91
2023/10/10 13:18:41;;;;;;;0.00;0.00;;;;;;;;;;5079705;28;20136;-92
2023/10/10 13:21:07;;;;;;;0.05;0.00;;;;;;;;;;5077958;28;20404;-92
2023/10/10 13:23:35;;;;;;;0.00;0.00;;;;;;;;;;5056881;28;20024;-90
2023/10/10 13:26:01;;;;;;;0.00;0.00;;;;;;;;;;5073543;28;20165;-89
2023/10/10 13:28:26;;;;;;;0.00;0.00;;;;;;;;;;5056745;28;20058;-88
2023/10/10 13:30:52;;;;;;;0.00;0.00;;;;;;;;;;5072199;28;20047;-87
2023/10/10 13:33:20;;;;;;;0.00;0.00;;;;;;;;;;5055205;28;20125;-90
2023/10/10 13:35:45;;;;;;;0.00;0.00;;;;;;;;;;5057645;28;20374;-90
2023/10/10 13:38:11;;;;;;;0.00;0.00;;;;;;;;;;5059762;28;20047;-90
2023/10/10 13:40:46;;;;;;;0.00;0.00;;;;;;;;;;5042494;28;20032;-88
2023/10/10 13:43:17;;;;;;;0.00;0.00;;;;;;;;;;5060385;28;20039;-88
2023/10/10 13:45:48;;;;;;;0.05;0.00;;;;;;;;;;5059904;28;20036;-89
2023/10/10 13:48:13;;;;;;;0.00;0.00;;;;;;;;;;5060696;28;20464;-89
2023/10/10 13:50:42;;;;;;;0.00;0.00;;;;;;;;;;5058948;28;20032;-89
2023/10/10 13:53:12;;;;;;;0.00;0.00;;;;;;;;;;5042294;28;20024;-88
2023/10/10 13:55:38;;;;;;;0.00;0.00;;;;;;;;;;5076140;28;20021;-90
2023/10/10 13:58:07;;;;;;;0.00;0.00;;;;;;;;;;5058777;28;20028;-91
2023/10/10 14:00:52;;;;;;;0.00;0.00;;;;;;;;;;5059360;28;20036;-90
2023/10/10 14:03:28;;;;;;;0.00;0.00;;;;;;;;;;5060373;28;20024;-89
2023/10/10 14:06:00;;;;;;;0.00;0.00;;;;;;;;;;5062984;28;20081;-91
2023/10/10 14:08:26;;;;;;;0.00;0.00;;;;;;;;;;5047571;28;20035;-89
2023/10/10 14:10:53;;;;;;;0.00;0.00;;;;;;;;;;5045993;28;20028;-89
2023/10/10 14:13:19;;;;;;;0.00;0.00;;;;;;;;;;5062420;28;20085;-88
2023/10/10 14:16:01;;;;;;;0.00;0.00;;;;;;;;;;5062424;28;20126;-91
2023/10/10 14:18:42;;;;;;;0.00;0.00;;;;;;;;;;5066241;28;20028;-90
2023/10/10 14:21:08;;;;;;;0.00;0.00;;;;;;;;;;5063692;28;20036;-90
2023/10/10 14:23:35;;;;;;;0.00;0.00;;;;;;;;;;5045478;28;20382;-90
2023/10/10 14:26:13;;;;;;;0.00;0.00;;;;;;;;;;5074674;28;20051;-88
2023/10/10 14:28:51;;;;;;;0.00;0.00;;;;;;;;;;5074862;28;20036;-94
2023/10/10 14:31:23;;;;;;;0.00;0.00;;;;;;;;;;5075395;28;20082;-87
2023/10/10 14:33:53;;;;;;;0.00;0.00;;;;;;;;;;5075132;28;20032;-92
2023/10/10 14:36:18;;;;;;;0.00;0.00;;;;;;;;;;5059365;28;20024;-89
2023/10/10 14:38:48;;;;;;;0.00;0.00;;;;;;;;;;5076924;28;20048;-88
2023/10/10 14:41:18;;;;;;;0.00;0.00;;;;;;;;;;5059763;28;20028;-89
2023/10/10 14:43:50;;;;;;;0.00;0.00;;;;;;;;;;5048147;28;20060;-87
2023/10/10 14:46:54;;;;;;;0.00;0.00;;;;;;;;;;5076926;28;20032;-89
2023/10/10 14:49:20;;;;;;;0.00;0.00;;;;;;;;;;5078044;28;20147;-86
2023/10/10 14:51:48;;;;;;;0.00;0.00;;;;;;;;;;5079033;28;20358;-86
2023/10/10 14:54:17;;;;;;;0.00;0.00;;;;;;;;;;5062706;28;20058;-87
2023/10/10 14:56:46;;;;;;;0.00;0.00;;;;;;;;;;5070961;28;20028;-87
2023/10/10 14:59:17;;;;;;;0.00;0.00;;;;;;;;;;5047973;28;20039;-88
2023/10/10 15:01:47;;;;;;;0.00;0.00;;;;;;;;;;5086970;28;20028;-90
2023/10/10 15:04:13;;;;;;;;;;;;;;;;;;5063009;28;20085;-90
2023/10/10 15:06:39;;;;;;;0.00;0.00;;;;;;;;;;5077821;28;19912;-91
2023/10/10 15:09:05;;;;;;;0.00;0.00;;;;;;;;;;5052253;28;20119;-88
2023/10/10 15:11:30;;;;;;;0.00;0.00;;;;;;;;;;5058493;28;20144;-88
2023/10/10 15:13:56;;;;;;;0.00;0.00;;;;;;;;;;5074519;28;20086;-88
2023/10/10 15:16:23;;;;;;;0.00;0.00;;;;;;;;;;5040962;28;20017;-89
2023/10/10 15:18:54;;;;;;;0.00;0.00;;;;;;;;;;5075412;28;20089;-89
2023/10/10 15:21:20;;;;;;;0.00;0.00;;;;;;;;;;5074275;28;20043;-93
2023/10/10 15:23:46;;;;;;;0.00;0.00;;;;;;;;;;5041063;28;20028;-89
2023/10/10 15:26:19;;;;;;;0.00;0.00;;;;;;;;;;5056735;28;20023;-91
2023/10/10 15:28:45;;;;;;;0.00;0.00;;;;;;;;;;5058437;28;20025;-89
2023/10/10 15:31:12;;;;;;;0.00;0.00;;;;;;;;;;5060023;28;20029;-91
2023/10/10 15:33:43;;;;;;;0.00;0.00;;;;;;;;;;5075772;28;20025;-90
2023/10/10 15:36:11;;;;;;;0.00;0.00;;;;;;;;;;5058613;28;20032;-89
2023/10/10 15:38:39;;;;;;;0.00;0.00;;;;;;;;;;5060690;28;20059;-89
2023/10/10 15:41:16;;;;;;;0.00;0.00;;;;;;;;;;5059436;28;20123;-88
2023/10/10 15:43:46;;;;;;;0.00;0.00;;;;;;;;;;5065949;28;20039;-89
2023/10/10 15:46:13;;;;;;;0.00;0.00;;;;;;;;;;5067338;28;20017;-89
2023/10/10 15:48:42;;;;;;;0.00;0.00;;;;;;;;;;5081268;28;20527;-93
2023/10/10 15:51:08;;;;;;;0.00;0.00;;;;;;;;;;5076713;28;20407;-90
2023/10/10 15:53:38;;;;;;;0.00;0.00;;;;;;;;;;5077421;28;20036;-94
2023/10/10 15:56:17;;;;;;;0.00;0.00;;;;;;;;;;5041819;28;20085;-93
2023/10/10 15:58:52;;;;;;;0.00;0.00;;;;;;;;;;5045103;28;20089;-93
2023/10/10 16:01:28;;;;;;;0.00;0.00;;;;;;;;;;5074721;28;20040;-89
2023/10/10 16:04:23;;;;;;;0.00;0.00;;;;;;;;;;5075107;28;20454;-91
2023/10/10 16:06:50;;;;;;;0.00;0.00;;;;;;;;;;5073969;28;20024;-89
2023/10/10 16:09:20;;;;;;;0.00;0.00;;;;;;;;;;5042887;28;20443;-88
2023/10/10 16:11:52;;;;;;;0.00;0.00;;;;;;;;;;5038943;28;20510;-91
2023/10/10 16:14:19;;;;;;;0.00;0.00;;;;;;;;;;5041419;28;20148;-86
2023/10/10 16:16:46;;;;;;;0.00;0.00;;;;;;;;;;5074154;28;20115;-89
2023/10/10 16:19:21;;;;;;;0.00;0.00;;;;;;;;;;5039969;28;20378;-88
2023/10/10 16:21:50;;;;;;;0.00;0.00;;;;;;;;;;5056761;28;20036;-92
2023/10/10 16:24:16;;;;;;;0.00;0.00;;;;;;;;;;5058172;28;20025;-91
2023/10/10 16:26:47;;;;;;;0.00;0.00;;;;;;;;;;5048392;28;20104;-92
2023/10/10 16:29:19;;;;;;;0.00;0.00;;;;;;;;;;5082839;28;20028;-93
2023/10/10 16:31:45;;;;;;;0.00;0.00;;;;;;;;;;5056488;28;20042;-94
2023/10/10 16:34:11;;;;;;;0.00;0.00;;;;;;;;;;5066613;28;20027;-94
2023/10/10 16:36:36;;;;;;;0.00;0.00;;;;;;;;;;5064991;28;20115;-93
2023/10/10 16:39:05;;;;;;;0.00;0.00;;;;;;;;;;5061095;28;20076;-89
2023/10/10 16:41:31;;;;;;;0.00;0.00;;;;;;;;;;5083168;28;20139;-95
2023/10/10 16:43:58;;;;;;;0.00;0.00;;;;;;;;;;5061051;28;20036;-93
2023/10/10 16:46:25;;;;;;;0.00;0.00;;;;;;;;;;5045703;28;20416;-94
2023/10/10 16:48:50;;;;;;;0.00;0.00;;;;;;;;;;5082099;28;20038;-95
2023/10/10 16:51:16;;;;;;;0.00;0.00;;;;;;;;;;5064554;28;20036;-93
2023/10/10 16:53:43;;;;;;;0.00;0.00;;;;;;;;;;5082271;28;20024;-95
2023/10/10 16:56:20;;;;;;;0.00;0.00;;;;;;;;;;5045470;28;20027;-94
2023/10/10 16:58:47;;;;;;;0.00;0.00;;;;;;;;;;5061605;28;20346;-93
2023/10/10 17:01:12;;;;;;;0.00;0.00;;;;;;;;;;5062846;28;20036;-94
2023/10/10 17:03:43;;;;;;;0.00;0.00;;;;;;;;;;5047997;28;20085;-89
2023/10/10 17:06:13;;;;;;;0.00;0.00;;;;;;;;;;5060096;28;20024;-93
2023/10/10 17:08:38;;;;;;;0.00;0.00;;;;;;;;;;5063446;28;20377;-89
2023/10/10 17:11:16;;;;;;;0.03;0.00;;;;;;;;;;5059283;28;20105;-94
2023/10/10 17:13:42;;;;;;;0.00;0.00;;;;;;;;;;5039172;28;20024;-89
2023/10/10 17:16:11;;;;;;;0.00;0.00;;;;;;;;;;5075500;28;20119;-89
2023/10/10 17:18:43;;;;;;;0.00;0.00;;;;;;;;;;5043427;28;20036;-88
2023/10/10 17:21:13;;;;;;;0.00;0.00;;;;;;;;;;5042970;28;20427;-91
2023/10/10 17:23:42;;;;;;;0.00;0.00;;;;;;;;;;5058894;28;20028;-87
2023/10/10 17:26:11;;;;;;;0.00;0.00;;;;;;;;;;5042875;28;20036;-91
2023/10/10 17:28:39;;;;;;;0.00;0.00;;;;;;;;;;5042747;28;20040;-87
2023/10/10 17:31:05;;;;;;;0.00;0.00;;;;;;;;;;5051340;28;20029;-87
2023/10/10 17:33:34;;;;;;;0.00;0.00;;;;;;;;;;5002778;28;20043;-90
2023/10/10 17:36:00;;;;;;;0.00;0.00;;;;;;;;;;5020210;28;20025;-90
2023/10/10 17:38:27;;;;;;;0.00;0.00;;;;;;;;;;5019192;28;20076;-88
2023/10/10 17:41:00;;;;;;;0.00;0.00;;;;;;;;;;5006405;28;20032;-89
2023/10/10 17:43:25;;;;;;;0.00;0.00;;;;;;;;;;5026799;28;20016;-89
2023/10/10 17:45:51;;;;;;;0.00;0.00;;;;;;;;;;5022824;28;20414;-87
2023/10/10 17:48:17;;;;;;;0.00;0.00;;;;;;;;;;5057212;28;20078;-94
2023/10/10 17:50:46;;;;;;;0.00;0.00;;;;;;;;;;5039538;28;20062;-90
2023/10/10 17:53:11;;;;;;;0.00;0.00;;;;;;;;;;5039624;28;20112;-93
2023/10/10 17:55:45;;;;;;;0.00;0.00;;;;;;;;;;5041321;28;20033;-90
2023/10/10 17:58:11;;;;;;;0.00;0.00;;;;;;;;;;5058935;28;20411;-91
2023/10/10 18:00:36;;;;;;;0.00;0.00;;;;;;;;;;5024083;28;20112;-91
2023/10/10 18:03:07;;;;;;;0.00;0.00;;;;;;;;;;5055919;28;20033;-91
2023/10/10 18:05:40;;;;;;;0.00;0.00;;;;;;;;;;5040036;28;20025;-89
2023/10/10 18:08:06;;;;;;;0.00;0.00;;;;;;;;;;5041916;28;20108;-89
2023/10/10 18:10:32;;;;;;;0.00;0.00;;;;;;;;;;5023151;28;20079;-90
2023/10/10 18:12:57;;;;;;;0.00;0.00;;;;;;;;;;5053916;28;20043;-88
2023/10/10 18:15:23;;;;;;;0.00;0.00;;;;;;;;;;5046410;28;20039;-89
2023/10/10 18:17:49;;;;;;;0.00;0.00;;;;;;;;;;5062046;28;20032;-88
2023/10/10 18:20:15;;;;;;;0.00;0.00;;;;;;;;;;5062015;28;20032;-89
2023/10/10 18:22:44;;;;;;;0.00;0.00;;;;;;;;;;5045568;28;20089;-89